createdAt,value
2018-06-11T00:00:04.873Z,18.66
2018-06-11T00:01:04.906Z,18.62
2018-06-11T00:02:04.930Z,18.49
2018-06-11T00:03:04.964Z,18.59
2018-06-11T00:04:04.992Z,18.41
2018-06-11T00:05:05.010Z,18.53
2018-06-11T00:06:05.039Z,18.56
2018-06-11T00:07:05.065Z,18.57
2018-06-11T00:08:05.092Z,18.57
2018-06-11T00:09:05.116Z,18.36
2018-06-11T00:10:05.144Z,18.41
2018-06-11T00:11:05.174Z,18.29
2018-06-11T00:12:05.197Z,18.26
2018-06-11T00:13:05.223Z,18.26
2018-06-11T00:14:05.254Z,18.29
2018-06-11T00:15:05.273Z,18.36
2018-06-11T00:16:05.304Z,18.31
2018-06-11T00:17:05.334Z,18.36
2018-06-11T00:18:05.363Z,18.35
2018-06-11T00:19:05.384Z,18.36
2018-06-11T00:20:05.412Z,18.29
2018-06-11T00:21:05.436Z,18.36
2018-06-11T00:22:05.464Z,18.36
2018-06-11T00:23:05.494Z,18.23
2018-06-11T00:24:05.519Z,18.31
2018-06-11T00:25:05.544Z,18.19
2018-06-11T00:26:05.569Z,18.14
2018-06-11T00:27:05.598Z,18.19
2018-06-11T00:28:05.624Z,18.25
2018-06-11T00:29:05.654Z,18.14
2018-06-11T00:30:05.679Z,18.16
2018-06-11T00:31:05.699Z,18.16
2018-06-11T00:32:05.734Z,18.13
2018-06-11T00:33:05.752Z,17.99
2018-06-11T00:34:05.785Z,17.98
2018-06-11T00:35:05.812Z,17.89
2018-06-11T00:36:05.837Z,17.87
2018-06-11T00:37:05.862Z,17.84
2018-06-11T00:38:05.894Z,17.86
2018-06-11T00:39:05.912Z,17.79
2018-06-11T00:40:05.937Z,17.84
2018-06-11T00:41:05.968Z,17.80
2018-06-11T00:42:05.994Z,17.84
2018-06-11T00:43:06.018Z,17.86
2018-06-11T00:44:06.047Z,17.84
2018-06-11T00:45:06.072Z,17.80
2018-06-11T00:46:06.098Z,17.80
2018-06-11T00:47:06.132Z,17.74
2018-06-11T00:48:06.152Z,17.66
2018-06-11T00:49:06.178Z,17.62
2018-06-11T00:50:06.207Z,17.65
2018-06-11T00:51:06.235Z,17.68
2018-06-11T00:52:06.258Z,17.63
2018-06-11T00:53:06.286Z,17.46
2018-06-11T00:54:06.312Z,17.46
2018-06-11T00:55:06.339Z,17.62
2018-06-11T00:56:06.363Z,17.46
2018-06-11T00:57:06.392Z,17.46
2018-06-11T00:58:06.421Z,17.53
2018-06-11T00:59:06.446Z,17.46
2018-06-11T01:00:06.472Z,17.49
2018-06-11T01:01:06.498Z,17.51
2018-06-11T01:02:06.524Z,17.45
2018-06-11T01:03:06.555Z,17.47
2018-06-11T01:04:06.572Z,17.47
2018-06-11T01:05:06.603Z,17.43
2018-06-11T01:06:06.631Z,17.45
2018-06-11T01:07:06.653Z,17.47
2018-06-11T01:08:06.678Z,17.39
2018-06-11T01:09:06.710Z,17.36
2018-06-11T01:10:06.733Z,17.32
2018-06-11T01:11:06.763Z,17.32
2018-06-11T01:12:06.788Z,17.27
2018-06-11T01:13:06.811Z,17.24
2018-06-11T01:14:06.836Z,17.30
2018-06-11T01:15:06.865Z,17.27
2018-06-11T01:16:06.892Z,17.28
2018-06-11T01:17:06.913Z,17.28
2018-06-11T01:18:06.947Z,17.18
2018-06-11T01:19:06.968Z,17.27
2018-06-11T01:20:06.992Z,17.24
2018-06-11T01:21:07.021Z,17.20
2018-06-11T01:22:07.048Z,17.17
2018-06-11T01:23:07.072Z,17.15
2018-06-11T01:24:07.096Z,17.12
2018-06-11T01:25:07.132Z,17.09
2018-06-11T01:26:07.156Z,17.14
2018-06-11T01:27:07.177Z,17.00
2018-06-11T01:28:07.202Z,17.02
2018-06-11T01:29:07.231Z,17.02
2018-06-11T01:30:07.251Z,16.85
2018-06-11T01:31:07.280Z,16.87
2018-06-11T01:32:07.307Z,16.88
2018-06-11T01:33:07.337Z,16.82
2018-06-11T01:34:07.365Z,16.92
2018-06-11T01:35:07.387Z,16.98
2018-06-11T01:36:07.410Z,16.99
2018-06-11T01:37:07.437Z,17.00
2018-06-11T01:38:07.460Z,16.96
2018-06-11T01:39:07.488Z,17.00
2018-06-11T01:40:07.516Z,17.09
2018-06-11T01:41:07.541Z,17.05
2018-06-11T01:42:07.565Z,17.03
2018-06-11T01:43:07.595Z,17.14
2018-06-11T01:44:07.638Z,17.20
2018-06-11T01:47:07.723Z,17.22
2018-06-11T01:49:07.950Z,17.07
2018-06-11T01:50:07.773Z,17.07
2018-06-11T01:51:07.800Z,17.03
2018-06-11T01:52:07.826Z,17.10
2018-06-11T01:53:11.686Z,17.06
2018-06-11T01:54:07.884Z,17.14
2018-06-11T01:55:07.906Z,17.18
2018-06-11T01:56:07.930Z,17.22
2018-06-11T01:57:07.955Z,17.22
2018-06-11T01:58:07.986Z,17.21
2018-06-11T01:59:08.009Z,17.24
2018-06-11T02:00:08.031Z,17.25
2018-06-11T02:01:08.060Z,17.28
2018-06-11T02:02:08.085Z,17.27
2018-06-11T02:03:08.111Z,17.32
2018-06-11T02:04:08.141Z,17.30
2018-06-11T02:05:08.165Z,17.33
2018-06-11T02:06:08.195Z,17.36
2018-06-11T02:07:08.214Z,17.40
2018-06-11T02:08:08.243Z,17.43
2018-06-11T02:09:08.270Z,17.49
2018-06-11T02:10:08.294Z,17.47
2018-06-11T02:11:08.326Z,17.49
2018-06-11T02:12:08.353Z,17.53
2018-06-11T02:13:08.370Z,17.47
2018-06-11T02:14:08.403Z,17.43
2018-06-11T02:15:08.429Z,17.38
2018-06-11T02:16:08.453Z,17.38
2018-06-11T02:17:08.479Z,17.35
2018-06-11T02:18:08.509Z,17.33
2018-06-11T02:19:08.529Z,17.35
2018-06-11T02:20:08.555Z,17.38
2018-06-11T02:21:08.589Z,17.28
2018-06-11T02:22:08.609Z,17.36
2018-06-11T02:23:08.635Z,17.38
2018-06-11T02:24:08.664Z,17.35
2018-06-11T02:25:08.685Z,17.39
2018-06-11T02:26:08.717Z,17.47
2018-06-11T02:27:08.738Z,17.43
2018-06-11T02:28:08.764Z,17.38
2018-06-11T02:29:08.797Z,17.38
2018-06-11T02:30:08.827Z,17.40
2018-06-11T02:31:08.849Z,17.46
2018-06-11T02:32:08.874Z,17.55
2018-06-11T02:33:08.911Z,17.65
2018-06-11T02:34:08.930Z,17.70
2018-06-11T02:35:08.949Z,17.73
2018-06-11T02:36:08.984Z,17.86
2018-06-11T02:37:09.011Z,17.94
2018-06-11T02:38:09.029Z,18.04
2018-06-11T02:39:09.061Z,18.07
2018-06-11T02:40:09.079Z,18.05
2018-06-11T02:41:09.109Z,18.09
2018-06-11T02:42:09.141Z,18.13
2018-06-11T02:43:09.161Z,18.17
2018-06-11T02:44:09.188Z,18.16
2018-06-11T02:45:09.217Z,18.23
2018-06-11T02:46:09.239Z,18.35
2018-06-11T02:47:09.264Z,18.26
2018-06-11T02:48:09.294Z,18.28
2018-06-11T02:49:09.317Z,18.19
2018-06-11T02:50:09.351Z,18.25
2018-06-11T02:51:09.376Z,18.21
2018-06-11T02:52:09.398Z,18.21
2018-06-11T02:53:09.431Z,18.09
2018-06-11T02:54:09.452Z,18.02
2018-06-11T02:55:09.473Z,18.09
2018-06-11T02:56:09.503Z,17.98
2018-06-11T02:57:09.528Z,18.09
2018-06-11T02:58:09.558Z,18.05
2018-06-11T02:59:09.583Z,17.96
2018-06-11T03:00:09.612Z,17.94
2018-06-11T03:01:09.639Z,17.92
2018-06-11T03:02:09.661Z,17.81
2018-06-11T03:03:09.687Z,17.98
2018-06-11T03:04:09.713Z,17.91
2018-06-11T03:05:09.744Z,17.84
2018-06-11T03:06:09.770Z,17.83
2018-06-11T03:07:09.792Z,17.95
2018-06-11T03:08:09.824Z,17.92
2018-06-11T03:09:09.848Z,17.79
2018-06-11T03:10:09.875Z,17.76
2018-06-11T03:11:09.899Z,17.66
2018-06-11T03:12:09.931Z,17.63
2018-06-11T03:13:09.957Z,17.53
2018-06-11T03:14:09.979Z,17.58
2018-06-11T03:15:10.002Z,17.49
2018-06-11T03:16:10.036Z,17.47
2018-06-11T03:17:10.058Z,17.46
2018-06-11T03:18:10.092Z,17.49
2018-06-11T03:19:10.113Z,17.47
2018-06-11T03:20:10.137Z,17.53
2018-06-11T03:21:10.162Z,17.47
2018-06-11T03:22:10.192Z,17.49
2018-06-11T03:23:10.217Z,17.39
2018-06-11T03:24:10.242Z,17.40
2018-06-11T03:25:10.273Z,17.43
2018-06-11T03:26:10.294Z,17.36
2018-06-11T03:27:10.322Z,17.35
2018-06-11T03:28:10.348Z,17.30
2018-06-11T03:29:10.372Z,17.25
2018-06-11T03:30:10.410Z,17.30
2018-06-11T03:31:10.426Z,17.38
2018-06-11T03:32:10.455Z,17.36
2018-06-11T03:33:10.481Z,17.36
2018-06-11T03:34:10.507Z,17.38
2018-06-11T03:35:10.536Z,17.40
2018-06-11T03:36:10.556Z,17.39
2018-06-11T03:37:10.589Z,17.36
2018-06-11T03:38:10.612Z,17.40
2018-06-11T03:39:10.641Z,17.33
2018-06-11T03:40:10.661Z,17.32
2018-06-11T03:41:10.694Z,17.21
2018-06-11T03:42:10.718Z,17.32
2018-06-11T03:43:10.741Z,17.21
2018-06-11T03:44:10.768Z,17.22
2018-06-11T03:45:10.795Z,17.22
2018-06-11T03:46:10.826Z,17.24
2018-06-11T03:47:10.851Z,17.14
2018-06-11T03:48:10.875Z,17.20
2018-06-11T03:49:10.900Z,17.17
2018-06-11T03:50:10.925Z,17.18
2018-06-11T03:51:10.951Z,17.22
2018-06-11T03:52:10.976Z,17.22
2018-06-11T03:53:11.005Z,17.20
2018-06-11T03:54:11.030Z,17.27
2018-06-11T03:55:11.057Z,17.28
2018-06-11T03:56:11.090Z,17.14
2018-06-11T03:57:11.111Z,17.07
2018-06-11T03:58:11.135Z,17.21
2018-06-11T03:59:11.161Z,17.25
2018-06-11T04:00:11.189Z,17.22
2018-06-11T04:01:11.215Z,17.09
2018-06-11T04:02:11.244Z,17.17
2018-06-11T04:03:11.264Z,17.12
2018-06-11T04:04:11.291Z,17.17
2018-06-11T04:05:11.315Z,17.05
2018-06-11T04:06:11.341Z,17.03
2018-06-11T04:07:11.374Z,17.06
2018-06-11T04:08:11.399Z,17.10
2018-06-11T04:09:11.424Z,17.12
2018-06-11T04:10:11.448Z,17.15
2018-06-11T04:11:11.536Z,17.21
2018-06-11T04:12:11.501Z,17.35
2018-06-11T04:13:11.527Z,17.36
2018-06-11T04:14:11.552Z,17.38
2018-06-11T04:15:11.588Z,17.43
2018-06-11T04:16:11.605Z,17.40
2018-06-11T04:17:11.631Z,17.39
2018-06-11T04:18:11.655Z,17.36
2018-06-11T04:19:11.684Z,17.38
2018-06-11T04:20:11.710Z,17.33
2018-06-11T04:21:11.729Z,17.32
2018-06-11T04:22:11.761Z,17.35
2018-06-11T04:23:11.790Z,17.40
2018-06-11T04:24:11.814Z,17.51
2018-06-11T04:25:11.835Z,17.68
2018-06-11T04:26:11.868Z,17.68
2018-06-11T04:27:11.893Z,17.73
2018-06-11T04:28:11.914Z,17.65
2018-06-11T04:29:11.940Z,17.63
2018-06-11T04:30:11.969Z,17.65
2018-06-11T04:31:11.995Z,17.66
2018-06-11T04:32:12.020Z,17.80
2018-06-11T04:33:12.046Z,17.70
2018-06-11T04:34:12.076Z,17.73
2018-06-11T04:35:12.102Z,17.80
2018-06-11T04:36:12.124Z,17.86
2018-06-11T04:37:12.154Z,17.89
2018-06-11T04:38:12.183Z,17.87
2018-06-11T04:39:12.208Z,17.91
2018-06-11T04:40:12.229Z,17.79
2018-06-11T04:41:12.254Z,17.73
2018-06-11T04:42:12.288Z,17.74
2018-06-11T04:43:12.306Z,17.87
2018-06-11T04:44:12.339Z,17.83
2018-06-11T04:45:12.359Z,17.79
2018-06-11T04:46:12.390Z,17.80
2018-06-11T04:47:12.413Z,17.89
2018-06-11T04:48:12.443Z,17.92
2018-06-11T04:49:12.468Z,17.94
2018-06-11T04:50:12.492Z,17.83
2018-06-11T04:51:12.519Z,17.83
2018-06-11T04:52:12.548Z,18.01
2018-06-11T04:53:12.580Z,17.83
2018-06-11T04:54:12.599Z,17.83
2018-06-11T04:55:12.624Z,17.84
2018-06-11T04:56:12.653Z,17.83
2018-06-11T04:57:12.689Z,17.92
2018-06-11T04:58:12.703Z,17.91
2018-06-11T04:59:12.735Z,18.04
2018-06-11T05:00:12.759Z,17.96
2018-06-11T05:01:12.788Z,17.98
2018-06-11T05:02:12.811Z,17.98
2018-06-11T05:03:12.834Z,17.98
2018-06-11T05:04:12.866Z,18.07
2018-06-11T05:05:12.892Z,18.20
2018-06-11T05:06:12.918Z,18.28
2018-06-11T05:07:12.942Z,18.35
2018-06-11T05:08:12.984Z,18.44
2018-06-11T05:09:12.997Z,18.49
2018-06-11T05:10:13.022Z,18.62
2018-06-11T05:11:13.047Z,18.56
2018-06-11T05:12:13.077Z,18.60
2018-06-11T05:13:13.104Z,18.44
2018-06-11T05:14:13.127Z,18.59
2018-06-11T05:15:13.157Z,18.51
2018-06-11T05:16:13.186Z,18.51
2018-06-11T05:17:13.210Z,18.46
2018-06-11T05:18:13.239Z,18.49
2018-06-11T05:19:13.265Z,18.44
2018-06-11T05:20:13.301Z,18.50
2018-06-11T05:21:13.316Z,18.51
2018-06-11T05:22:13.343Z,18.49
2018-06-11T05:23:13.373Z,18.42
2018-06-11T05:24:13.447Z,18.41
2018-06-11T05:25:13.422Z,18.54
2018-06-11T05:26:13.451Z,18.56
2018-06-11T05:27:13.472Z,18.41
2018-06-11T05:28:13.501Z,18.64
2018-06-11T05:29:13.530Z,18.54
2018-06-11T05:30:13.556Z,18.69
2018-06-11T05:31:13.580Z,18.74
2018-06-11T05:32:13.610Z,18.71
2018-06-11T05:33:13.641Z,18.68
2018-06-11T05:34:13.661Z,18.65
2018-06-11T05:35:13.689Z,18.71
2018-06-11T05:36:13.738Z,18.64
2018-06-11T05:37:13.750Z,18.65
2018-06-11T05:38:13.779Z,18.69
2018-06-11T05:39:13.797Z,18.75
2018-06-11T05:40:13.822Z,18.68
2018-06-11T05:41:13.852Z,18.74
2018-06-11T05:42:13.883Z,18.89
2018-06-11T05:43:13.907Z,18.76
2018-06-11T05:44:13.930Z,18.78
2018-06-11T05:45:13.957Z,18.84
2018-06-11T05:46:13.981Z,18.90
2018-06-11T05:47:14.010Z,18.79
2018-06-11T05:48:14.041Z,18.76
2018-06-11T05:49:14.066Z,18.83
2018-06-11T05:50:14.093Z,18.87
2018-06-11T05:51:14.121Z,18.96
2018-06-11T05:52:14.150Z,18.90
2018-06-11T05:53:14.177Z,18.97
2018-06-11T05:54:14.204Z,19.09
2018-06-11T05:55:14.234Z,19.01
2018-06-11T05:56:14.256Z,19.07
2018-06-11T05:57:14.286Z,19.16
2018-06-11T05:58:14.305Z,19.15
2018-06-11T05:59:14.336Z,19.12
2018-06-11T06:00:14.362Z,19.13
2018-06-11T06:01:14.394Z,19.16
2018-06-11T06:02:14.420Z,19.21
2018-06-11T06:03:14.440Z,19.23
2018-06-11T06:04:14.469Z,19.30
2018-06-11T06:05:14.500Z,19.24
2018-06-11T06:06:14.526Z,19.23
2018-06-11T06:07:14.550Z,19.35
2018-06-11T06:08:14.583Z,19.27
2018-06-11T06:09:14.614Z,19.35
2018-06-11T06:10:14.631Z,19.34
2018-06-11T06:11:14.664Z,19.35
2018-06-11T06:12:14.685Z,19.35
2018-06-11T06:13:14.720Z,19.30
2018-06-11T06:14:14.765Z,19.20
2018-06-11T06:15:14.769Z,19.17
2018-06-11T06:16:14.796Z,19.06
2018-06-11T06:17:14.824Z,18.94
2018-06-11T06:18:14.853Z,18.74
2018-06-11T06:19:14.879Z,18.69
2018-06-11T06:20:14.905Z,18.64
2018-06-11T06:21:14.931Z,18.71
2018-06-11T06:22:14.960Z,18.83
2018-06-11T06:23:14.986Z,18.82
2018-06-11T06:24:15.009Z,18.74
2018-06-11T06:25:15.047Z,18.87
2018-06-11T06:26:15.065Z,19.01
2018-06-11T06:27:15.098Z,19.17
2018-06-11T06:28:15.119Z,19.32
2018-06-11T06:29:15.145Z,19.24
2018-06-11T06:30:15.174Z,19.16
2018-06-11T06:31:15.199Z,19.27
2018-06-11T06:32:15.230Z,19.28
2018-06-11T06:33:15.258Z,19.34
2018-06-11T06:34:15.413Z,19.38
2018-06-11T06:35:15.309Z,19.23
2018-06-11T06:36:15.334Z,19.21
2018-06-11T06:37:15.367Z,19.24
2018-06-11T06:38:15.389Z,19.21
2018-06-11T06:39:15.419Z,19.38
2018-06-11T06:40:15.445Z,19.42
2018-06-11T06:41:15.479Z,19.49
2018-06-11T06:42:15.500Z,19.52
2018-06-11T06:43:15.533Z,19.52
2018-06-11T06:44:15.554Z,19.61
2018-06-11T06:45:15.584Z,19.43
2018-06-11T06:46:15.609Z,19.40
2018-06-11T06:47:15.640Z,19.27
2018-06-11T06:48:15.664Z,19.28
2018-06-11T06:49:15.692Z,19.24
2018-06-11T06:50:15.723Z,19.27
2018-06-11T06:51:15.751Z,19.20
2018-06-11T06:52:15.776Z,19.25
2018-06-11T06:53:15.799Z,19.21
2018-06-11T06:54:15.828Z,19.24
2018-06-11T06:55:15.853Z,19.40
2018-06-11T06:56:15.888Z,19.47
2018-06-11T06:57:15.909Z,19.53
2018-06-11T06:58:15.934Z,19.62
2018-06-11T06:59:15.963Z,19.64
2018-06-11T07:00:15.998Z,19.80
2018-06-11T07:01:16.019Z,19.79
2018-06-11T07:02:16.048Z,19.80
2018-06-11T07:03:16.076Z,19.83
2018-06-11T07:04:16.098Z,20.04
2018-06-11T07:05:16.131Z,19.97
2018-06-11T07:06:16.156Z,20.10
2018-06-11T07:07:16.184Z,20.08
2018-06-11T07:08:16.210Z,20.22
2018-06-11T07:09:16.238Z,20.23
2018-06-11T07:10:16.264Z,20.34
2018-06-11T07:11:16.300Z,20.48
2018-06-11T07:12:16.318Z,20.58
2018-06-11T07:13:16.350Z,20.60
2018-06-11T07:14:16.379Z,20.68
2018-06-11T07:15:16.421Z,20.81
2018-06-11T07:16:16.433Z,20.82
2018-06-11T07:17:16.459Z,20.83
2018-06-11T07:18:16.483Z,20.79
2018-06-11T07:19:16.518Z,20.85
2018-06-11T07:20:16.579Z,20.75
2018-06-11T07:21:16.570Z,20.79
2018-06-11T07:22:16.600Z,21.00
2018-06-11T07:23:16.641Z,21.12
2018-06-11T07:24:16.656Z,21.06
2018-06-11T07:25:16.692Z,21.03
2018-06-11T07:26:16.713Z,20.98
2018-06-11T07:27:16.738Z,21.06
2018-06-11T07:28:16.768Z,20.94
2018-06-11T07:29:16.796Z,20.91
2018-06-11T07:30:16.823Z,20.85
2018-06-11T07:31:16.912Z,20.79
2018-06-11T07:32:16.877Z,20.82
2018-06-11T07:33:16.911Z,20.88
2018-06-11T07:34:16.933Z,20.93
2018-06-11T07:35:16.967Z,20.69
2018-06-11T07:36:16.988Z,20.42
2018-06-11T07:37:17.017Z,20.38
2018-06-11T07:38:17.054Z,20.48
2018-06-11T07:39:17.073Z,20.46
2018-06-11T07:40:17.098Z,20.75
2018-06-11T07:41:17.132Z,20.76
2018-06-11T07:42:17.162Z,20.90
2018-06-11T07:43:17.186Z,20.91
2018-06-11T07:44:17.220Z,21.13
2018-06-11T07:45:17.238Z,21.15
2018-06-11T07:46:17.272Z,21.09
2018-06-11T07:47:17.304Z,20.96
2018-06-11T07:48:17.324Z,21.05
2018-06-11T07:49:17.360Z,21.03
2018-06-11T07:50:17.382Z,20.91
2018-06-11T07:51:17.409Z,20.94
2018-06-11T07:52:17.440Z,20.64
2018-06-11T07:53:17.468Z,20.63
2018-06-11T07:54:17.496Z,20.73
2018-06-11T07:55:17.522Z,20.85
2018-06-11T07:56:17.549Z,20.88
2018-06-11T07:57:17.589Z,20.97
2018-06-11T07:58:17.618Z,21.03
2018-06-11T07:59:17.636Z,21.05
2018-06-11T08:00:17.663Z,21.19
2018-06-11T08:01:17.715Z,21.06
2018-06-11T08:02:17.723Z,21.13
2018-06-11T08:03:17.746Z,21.24
2018-06-11T08:04:17.778Z,21.11
2018-06-11T08:05:17.803Z,21.12
2018-06-11T08:06:17.835Z,20.91
2018-06-11T08:07:17.863Z,20.75
2018-06-11T08:08:17.887Z,20.73
2018-06-11T08:09:17.917Z,20.23
2018-06-11T08:10:17.948Z,20.27
2018-06-11T08:11:17.977Z,20.42
2018-06-11T08:12:18.005Z,20.41
2018-06-11T08:13:18.031Z,20.48
2018-06-11T08:14:18.055Z,20.22
2018-06-11T08:15:18.089Z,20.37
2018-06-11T08:16:18.111Z,20.50
2018-06-11T08:17:18.145Z,20.51
2018-06-11T08:18:18.174Z,20.41
2018-06-11T08:19:18.203Z,20.38
2018-06-11T08:20:18.225Z,20.51
2018-06-11T08:21:18.256Z,20.72
2018-06-11T08:22:18.280Z,20.94
2018-06-11T08:23:18.315Z,21.09
2018-06-11T08:24:18.339Z,21.28
2018-06-11T08:25:18.366Z,21.52
2018-06-11T08:26:18.398Z,21.55
2018-06-11T08:27:18.419Z,21.27
2018-06-11T08:28:18.451Z,21.36
2018-06-11T08:29:18.484Z,21.28
2018-06-11T08:30:18.508Z,21.36
2018-06-11T08:31:18.538Z,21.38
2018-06-11T08:32:18.576Z,21.40
2018-06-11T08:33:18.599Z,21.49
2018-06-11T08:34:18.620Z,21.66
2018-06-11T08:35:18.654Z,21.67
2018-06-11T08:36:18.681Z,21.56
2018-06-11T08:37:18.707Z,21.49
2018-06-11T08:38:18.741Z,21.27
2018-06-11T08:39:18.759Z,21.19
2018-06-11T08:40:18.790Z,21.16
2018-06-11T08:41:18.822Z,21.24
2018-06-11T08:42:18.849Z,21.26
2018-06-11T08:43:18.930Z,20.98
2018-06-11T08:44:18.904Z,21.09
2018-06-11T08:45:18.939Z,21.11
2018-06-11T08:46:18.963Z,21.15
2018-06-11T08:47:18.997Z,21.15
2018-06-11T08:48:19.018Z,21.19
2018-06-11T08:49:19.046Z,21.16
2018-06-11T08:50:19.078Z,21.08
2018-06-11T08:51:19.104Z,20.97
2018-06-11T08:52:19.129Z,21.15
2018-06-11T08:53:19.160Z,21.24
2018-06-11T08:54:19.194Z,21.31
2018-06-11T08:55:19.219Z,21.38
2018-06-11T08:56:19.249Z,21.37
2018-06-11T08:57:19.274Z,21.49
2018-06-11T08:58:19.304Z,21.71
2018-06-11T08:59:19.332Z,21.68
2018-06-11T09:00:19.364Z,21.73
2018-06-11T09:01:19.389Z,21.70
2018-06-11T09:02:19.414Z,21.55
2018-06-11T09:03:19.439Z,21.52
2018-06-11T09:04:19.482Z,21.52
2018-06-11T09:05:19.499Z,21.82
2018-06-11T09:06:19.529Z,21.59
2018-06-11T09:07:19.555Z,21.68
2018-06-11T09:08:19.590Z,21.73
2018-06-11T09:09:19.614Z,21.82
2018-06-11T09:10:19.642Z,21.85
2018-06-11T09:11:19.668Z,21.75
2018-06-11T09:12:19.699Z,21.75
2018-06-11T09:13:19.733Z,21.74
2018-06-11T09:14:19.756Z,21.66
2018-06-11T09:15:19.793Z,21.82
2018-06-11T09:16:19.816Z,21.68
2018-06-11T09:17:19.839Z,21.85
2018-06-11T09:18:20.018Z,21.77
2018-06-11T09:19:19.898Z,21.99
2018-06-11T09:20:19.924Z,21.90
2018-06-11T09:21:19.953Z,21.61
2018-06-11T09:22:19.984Z,21.75
2018-06-11T09:23:20.008Z,21.75
2018-06-11T09:24:20.040Z,21.81
2018-06-11T09:25:20.072Z,22.04
2018-06-11T09:26:20.100Z,22.05
2018-06-11T09:27:20.122Z,22.04
2018-06-11T09:28:20.162Z,22.17
2018-06-11T09:29:20.184Z,22.27
2018-06-11T09:30:20.216Z,22.15
2018-06-11T09:31:20.238Z,21.86
2018-06-11T09:32:20.272Z,21.79
2018-06-11T09:33:20.298Z,21.49
2018-06-11T09:34:20.323Z,21.37
2018-06-11T09:35:20.357Z,21.05
2018-06-11T09:36:20.383Z,20.94
2018-06-11T09:37:20.416Z,20.79
2018-06-11T09:38:20.448Z,20.72
2018-06-11T09:39:20.471Z,20.76
2018-06-11T09:40:20.497Z,20.90
2018-06-11T09:41:20.529Z,20.97
2018-06-11T09:42:20.573Z,21.15
2018-06-11T09:43:20.587Z,21.13
2018-06-11T09:44:20.608Z,21.19
2018-06-11T09:45:20.638Z,21.42
2018-06-11T09:46:20.667Z,21.63
2018-06-11T09:47:20.694Z,21.66
2018-06-11T09:48:20.726Z,21.67
2018-06-11T09:49:20.747Z,21.83
2018-06-11T09:50:20.777Z,21.85
2018-06-11T09:51:20.807Z,21.89
2018-06-11T09:52:20.843Z,21.85
2018-06-11T09:53:20.862Z,21.81
2018-06-11T09:54:20.893Z,21.66
2018-06-11T09:55:20.923Z,21.71
2018-06-11T09:56:20.949Z,21.58
2018-06-11T09:57:20.987Z,21.59
2018-06-11T09:58:21.010Z,21.61
2018-06-11T09:59:21.036Z,21.46
2018-06-11T10:00:21.067Z,21.68
2018-06-11T10:01:21.105Z,21.93
2018-06-11T10:02:21.121Z,21.83
2018-06-11T10:03:21.156Z,21.66
2018-06-11T10:04:21.178Z,21.63
2018-06-11T10:05:21.201Z,21.82
2018-06-11T10:06:21.235Z,21.86
2018-06-11T10:07:21.263Z,21.91
2018-06-11T10:08:21.291Z,22.04
2018-06-11T10:09:21.316Z,22.11
2018-06-11T10:10:21.347Z,22.30
2018-06-11T10:11:21.378Z,22.57
2018-06-11T10:12:21.487Z,22.72
2018-06-11T10:13:21.434Z,22.66
2018-06-11T10:14:21.460Z,22.33
2018-06-11T10:15:21.486Z,22.26
2018-06-11T10:16:21.520Z,22.31
2018-06-11T10:17:21.546Z,22.29
2018-06-11T10:18:21.574Z,22.31
2018-06-11T10:19:21.663Z,22.30
2018-06-11T10:20:21.631Z,22.36
2018-06-11T10:21:21.664Z,22.36
2018-06-11T10:22:21.694Z,22.33
2018-06-11T10:23:21.716Z,22.36
2018-06-11T10:24:21.743Z,22.31
2018-06-11T10:25:21.803Z,22.36
2018-06-11T10:26:21.801Z,22.33
2018-06-11T10:27:21.830Z,22.23
2018-06-11T10:28:21.860Z,22.38
2018-06-11T10:29:21.885Z,22.36
2018-06-11T10:30:21.917Z,22.29
2018-06-11T10:31:21.949Z,22.39
2018-06-11T10:32:22.037Z,22.67
2018-06-11T10:33:22.001Z,22.51
2018-06-11T10:34:22.036Z,22.31
2018-06-11T10:35:22.071Z,22.20
2018-06-11T10:36:22.092Z,21.82
2018-06-11T10:37:22.120Z,21.83
2018-06-11T10:38:22.149Z,21.64
2018-06-11T10:39:22.183Z,21.59
2018-06-11T10:40:22.205Z,21.68
2018-06-11T10:41:22.237Z,21.75
2018-06-11T10:42:22.262Z,21.89
2018-06-11T10:43:22.290Z,22.06
2018-06-11T10:44:22.320Z,22.49
2018-06-11T10:45:22.350Z,22.56
2018-06-11T10:46:22.379Z,22.60
2018-06-11T10:47:22.409Z,22.72
2018-06-11T10:48:22.435Z,22.74
2018-06-11T10:49:22.470Z,22.84
2018-06-11T10:50:22.494Z,23.22
2018-06-11T10:51:22.519Z,23.25
2018-06-11T10:52:22.558Z,23.26
2018-06-11T10:53:22.581Z,23.54
2018-06-11T10:54:22.618Z,23.56
2018-06-11T10:55:22.638Z,23.53
2018-06-11T10:56:22.671Z,23.59
2018-06-11T10:57:22.701Z,23.56
2018-06-11T10:58:22.724Z,23.62
2018-06-11T10:59:22.759Z,23.72
2018-06-11T11:00:22.788Z,23.64
2018-06-11T11:01:22.816Z,23.89
2018-06-11T11:02:22.848Z,24.26
2018-06-11T11:03:22.868Z,24.42
2018-06-11T11:04:22.903Z,24.44
2018-06-11T11:05:22.939Z,24.64
2018-06-11T11:06:22.960Z,24.06
2018-06-11T11:07:22.988Z,24.26
2018-06-11T11:08:23.021Z,23.67
2018-06-11T11:09:23.052Z,23.07
2018-06-11T11:10:23.078Z,22.75
2018-06-11T11:11:23.104Z,23.04
2018-06-11T11:12:23.138Z,23.71
2018-06-11T11:13:23.178Z,25.07
2018-06-11T11:14:23.239Z,26.34
2018-06-11T11:15:23.228Z,27.50
2018-06-11T11:16:23.258Z,28.02
2018-06-11T11:17:23.287Z,28.74
2018-06-11T11:18:23.319Z,28.03
2018-06-11T11:19:23.354Z,28.30
2018-06-11T11:20:23.382Z,28.58
2018-06-11T11:21:23.412Z,28.79
2018-06-11T11:22:23.447Z,28.77
2018-06-11T11:23:23.475Z,29.29
2018-06-11T11:24:23.513Z,29.63
2018-06-11T11:25:23.540Z,30.79
2018-06-11T11:26:23.575Z,29.10
2018-06-11T11:27:23.608Z,27.48
2018-06-11T11:28:23.638Z,26.29
2018-06-11T11:29:23.672Z,26.35
2018-06-11T11:30:23.707Z,26.01
2018-06-11T11:31:23.740Z,25.69
2018-06-11T11:32:23.770Z,26.78
2018-06-11T11:33:23.806Z,28.32
2018-06-11T11:34:23.840Z,28.39
2018-06-11T11:35:23.871Z,28.46
2018-06-11T11:36:23.902Z,27.72
2018-06-11T11:37:23.932Z,26.59
2018-06-11T11:38:23.967Z,26.44
2018-06-11T11:39:23.997Z,27.02
2018-06-11T11:40:24.033Z,28.42
2018-06-11T11:41:24.062Z,28.92
2018-06-11T11:42:24.099Z,29.64
2018-06-11T11:43:24.137Z,30.91
2018-06-11T11:44:24.167Z,29.23
2018-06-11T11:45:24.201Z,27.93
2018-06-11T11:46:24.228Z,27.12
2018-06-11T11:47:24.271Z,26.19
2018-06-11T11:48:24.303Z,25.51
2018-06-11T11:49:24.338Z,25.42
2018-06-11T11:50:24.366Z,25.12
2018-06-11T11:51:24.395Z,25.16
2018-06-11T11:52:24.430Z,26.20
2018-06-11T11:53:24.464Z,26.50
2018-06-11T11:54:24.495Z,28.18
2018-06-11T11:55:24.522Z,28.76
2018-06-11T11:56:24.557Z,30.11
2018-06-11T11:57:24.594Z,30.54
2018-06-11T11:58:24.629Z,31.46
2018-06-11T11:59:24.656Z,30.54
2018-06-11T12:00:24.692Z,31.28
2018-06-11T12:01:24.731Z,31.69
2018-06-11T12:02:24.763Z,31.62
2018-06-11T12:03:25.402Z,32.29
2018-06-11T12:04:24.842Z,32.49
2018-06-11T12:05:24.861Z,32.77
2018-06-11T12:06:24.905Z,34.09
2018-06-11T12:07:24.936Z,33.60
2018-06-11T12:08:24.972Z,33.47
2018-06-11T12:09:25.009Z,32.43
2018-06-11T12:10:25.046Z,32.73
2018-06-11T12:11:25.081Z,32.91
2018-06-11T12:12:25.112Z,33.40
2018-06-11T12:13:25.151Z,32.93
2018-06-11T12:14:25.181Z,31.95
2018-06-11T12:15:25.221Z,31.95
2018-06-11T12:16:25.255Z,32.41
2018-06-11T12:17:25.292Z,32.31
2018-06-11T12:18:25.334Z,30.91
2018-06-11T12:19:25.368Z,30.98
2018-06-11T12:20:25.401Z,30.86
2018-06-11T12:21:25.442Z,31.19
2018-06-11T12:22:25.475Z,31.37
2018-06-11T12:23:25.513Z,31.27
2018-06-11T12:24:25.548Z,31.59
2018-06-11T12:25:25.585Z,31.88
2018-06-11T12:26:25.620Z,31.99
2018-06-11T12:27:25.664Z,31.87
2018-06-11T12:28:25.705Z,31.46
2018-06-11T12:29:25.731Z,31.40
2018-06-11T12:30:25.774Z,30.63
2018-06-11T12:31:25.805Z,31.18
2018-06-11T12:32:25.841Z,32.53
2018-06-11T12:33:25.883Z,33.47
2018-06-11T12:34:25.916Z,34.84
2018-06-11T12:35:25.959Z,34.64
2018-06-11T12:36:25.992Z,34.09
2018-06-11T12:37:26.028Z,34.31
2018-06-11T12:38:26.072Z,34.60
2018-06-11T12:39:26.102Z,33.65
2018-06-11T12:40:26.154Z,33.09
2018-06-11T12:41:26.177Z,32.78
2018-06-11T12:42:26.218Z,33.02
2018-06-11T12:43:26.259Z,33.52
2018-06-11T12:44:26.291Z,33.78
2018-06-11T12:45:26.335Z,34.43
2018-06-11T12:46:26.369Z,35.29
2018-06-11T12:47:26.473Z,34.88
2018-06-11T12:48:26.448Z,35.24
2018-06-11T12:49:26.480Z,35.28
2018-06-11T12:50:26.521Z,34.94
2018-06-11T12:51:26.554Z,34.81
2018-06-11T12:52:26.593Z,34.81
2018-06-11T12:53:26.636Z,34.80
2018-06-11T12:54:26.676Z,34.69
2018-06-11T12:55:26.715Z,35.56